Wetterdaten: Woche 07.11.11 - 13.11.11 (KW45)
Datum Zeit Temp. A. Feuchte A. Luftdruck Regen Wind Richtung Taupunkt Windchill Windben
07.11.2011 00:00 6,0 C 85 % 1020,9 hPa 0,0 l/m 0,1 km/h N 3,6 C 6,0 C 0,8 km/h
07.11.2011 01:00 4,8 C 85 % 1021,1 hPa 0,0 l/m 0,0 km/h N 2,4 C 4,8 C 0,0 km/h
07.11.2011 02:00 4,2 C 85 % 1021,5 hPa 0,0 l/m 0,0 km/h N 1,9 C 4,2 C 0,0 km/h
07.11.2011 03:00 3,9 C 85 % 1021,7 hPa 0,0 l/m 0,0 km/h N 1,6 C 3,9 C 0,0 km/h
07.11.2011 04:00 3,2 C 85 % 1021,9 hPa 0,0 l/m 0,0 km/h N 1,0 C 3,2 C 0,0 km/h
07.11.2011 05:00 2,7 C 85 % 1022,0 hPa 0,0 l/m 0,0 km/h N 0,4 C 2,7 C 0,0 km/h
07.11.2011 06:00 2,5 C 85 % 1022,4 hPa 0,0 l/m 0,0 km/h N 0,2 C 2,5 C 0,0 km/h
07.11.2011 07:00 3,7 C 83 % 1022,8 hPa 0,0 l/m 0,0 km/h N 1,0 C 3,7 C 1,2 km/h
07.11.2011 08:00 5,3 C 81 % 1023,0 hPa 0,0 l/m 0,1 km/h N 2,3 C 5,3 C 1,6 km/h
07.11.2011 09:00 6,3 C 82 % 1023,4 hPa 0,0 l/m 0,3 km/h N 3,4 C 6,3 C 3,6 km/h
07.11.2011 10:00 7,1 C 84 % 1023,7 hPa 0,0 l/m 0,4 km/h N 4,5 C 7,1 C 4,0 km/h
07.11.2011 11:00 8,4 C 84 % 1023,4 hPa 0,0 l/m 0,8 km/h N 5,8 C 8,4 C 5,6 km/h
07.11.2011 12:00 9,4 C 80 % 1023,6 hPa 0,0 l/m 1,1 km/h O 6,1 C 9,4 C 6,8 km/h
07.11.2011 13:00 10,1 C 78 % 1023,5 hPa 0,0 l/m 0,8 km/h N 6,4 C 10,1 C 6,4 km/h
07.11.2011 14:00 10,4 C 77 % 1023,3 hPa 0,0 l/m 0,3 km/h N 6,5 C 10,4 C 3,6 km/h
07.11.2011 15:00 10,7 C 76 % 1023,3 hPa 0,0 l/m 0,4 km/h N 6,5 C 10,7 C 5,6 km/h
07.11.2011 16:00 10,2 C 76 % 1023,5 hPa 0,0 l/m 0,1 km/h N 6,2 C 10,2 C 2,8 km/h
07.11.2011 17:00 9,5 C 78 % 1023,9 hPa 0,0 l/m 0,1 km/h N 5,9 C 9,5 C 3,6 km/h
07.11.2011 18:00 9,3 C 80 % 1024,4 hPa 0,0 l/m 0,2 km/h N 6,0 C 9,3 C 3,2 km/h
07.11.2011 19:00 9,4 C 80 % 1024,6 hPa 0,0 l/m 0,2 km/h N 6,1 C 9,4 C 4,8 km/h
07.11.2011 20:00 9,4 C 81 % 1024,5 hPa 0,0 l/m 0,1 km/h N 6,3 C 9,4 C 3,6 km/h
07.11.2011 21:00 9,0 C 81 % 1024,4 hPa 0,0 l/m 0,1 km/h N 6,0 C 9,0 C 2,0 km/h
07.11.2011 22:00 8,2 C 83 % 1024,3 hPa 0,0 l/m 0,0 km/h N 5,4 C 8,2 C 1,6 km/h
07.11.2011 23:00 7,6 C 84 % 1024,3 hPa 0,0 l/m 0,0 km/h N 5,0 C 7,6 C 1,6 km/h
08.11.2011 00:00 7,5 C 84 % 1024,3 hPa 0,0 l/m 0,1 km/h N 5,0 C 7,5 C 3,6 km/h
08.11.2011 01:00 7,7 C 84 % 1024,0 hPa 0,0 l/m 0,2 km/h N 5,2 C 7,7 C 4,0 km/h
08.11.2011 02:00 7,8 C 84 % 1024,0 hPa 0,0 l/m 0,1 km/h N 5,2 C 7,8 C 3,6 km/h
08.11.2011 03:00 7,6 C 84 % 1023,9 hPa 0,0 l/m 0,2 km/h N 5,1 C 7,6 C 3,2 km/h
08.11.2011 04:00 7,5 C 84 % 1023,9 hPa 0,0 l/m 0,1 km/h N 4,9 C 7,5 C 2,8 km/h
08.11.2011 05:00 7,5 C 83 % 1023,7 hPa 0,0 l/m 0,4 km/h N 4,9 C 7,5 C 6,0 km/h
08.11.2011 06:00 7,3 C 83 % 1023,7 hPa 0,0 l/m 0,4 km/h N 4,6 C 7,3 C 6,0 km/h
08.11.2011 07:00 7,1 C 83 % 1024,0 hPa 0,0 l/m 0,4 km/h N 4,4 C 7,1 C 6,0 km/h
08.11.2011 08:00 7,1 C 82 % 1024,0 hPa 0,0 l/m 0,4 km/h N 4,3 C 7,1 C 6,0 km/h
08.11.2011 09:00 7,4 C 82 % 1023,9 hPa 0,0 l/m 0,5 km/h N 4,5 C 7,4 C 6,4 km/h
08.11.2011 10:00 8,2 C 82 % 1023,8 hPa 0,0 l/m 0,9 km/h O-NO 5,3 C 8,2 C 8,4 km/h
08.11.2011 11:00 9,9 C 83 % 1023,4 hPa 0,0 l/m 1,5 km/h O 7,2 C 9,9 C 8,0 km/h
08.11.2011 12:00 11,4 C 82 % 1022,8 hPa 0,0 l/m 2,2 km/h O 8,4 C 11,4 C 8,0 km/h
08.11.2011 13:00 12,2 C 78 % 1022,4 hPa 0,0 l/m 1,0 km/h O 8,5 C 12,2 C 6,0 km/h
08.11.2011 14:00 12,4 C 77 % 1022,2 hPa 0,0 l/m 1,3 km/h O-NO 8,4 C 12,4 C 7,2 km/h
08.11.2011 15:00 12,1 C 77 % 1022,3 hPa 0,0 l/m 0,6 km/h N 8,1 C 12,1 C 6,4 km/h
08.11.2011 16:00 11,2 C 80 % 1022,4 hPa 0,0 l/m 0,4 km/h N 7,8 C 11,2 C 4,0 km/h
08.11.2011 17:00 10,4 C 81 % 1022,5 hPa 0,0 l/m 0,1 km/h N 7,3 C 10,4 C 1,6 km/h
08.11.2011 18:00 9,7 C 83 % 1022,5 hPa 0,0 l/m 0,1 km/h N 6,9 C 9,7 C 3,6 km/h
08.11.2011 19:00 9,4 C 84 % 1022,5 hPa 0,0 l/m 0,3 km/h S-SO 6,9 C 9,4 C 6,0 km/h
08.11.2011 20:00 9,2 C 84 % 1022,5 hPa 0,0 l/m 0,4 km/h N 6,6 C 9,2 C 5,6 km/h
08.11.2011 21:00 8,0 C 84 % 1022,6 hPa 0,0 l/m 0,1 km/h N 5,5 C 8,0 C 1,2 km/h
08.11.2011 22:00 7,3 C 84 % 1022,8 hPa 0,0 l/m 0,0 km/h N 4,8 C 7,3 C 1,6 km/h
08.11.2011 23:00 7,5 C 84 % 1022,6 hPa 0,0 l/m 0,0 km/h N 5,0 C 7,5 C 1,6 km/h
09.11.2011 00:00 8,0 C 83 % 1021,8 hPa 0,0 l/m 0,5 km/h N 5,3 C 8,0 C 7,2 km/h
09.11.2011 01:00 8,1 C 83 % 1021,5 hPa 0,0 l/m 1,2 km/h SO 5,4 C 8,1 C 8,0 km/h
09.11.2011 02:00 8,0 C 84 % 1021,6 hPa 0,0 l/m 0,6 km/h S-SW 5,4 C 8,0 C 6,4 km/h
09.11.2011 03:00 7,4 C 84 % 1021,6 hPa 0,0 l/m 0,2 km/h N 4,9 C 7,4 C 3,2 km/h
09.11.2011 04:00 7,0 C 84 % 1021,8 hPa 0,0 l/m 0,0 km/h N 4,5 C 7,0 C 1,6 km/h
09.11.2011 05:00 5,5 C 85 % 1021,8 hPa 0,0 l/m 0,0 km/h N 3,1 C 5,5 C 0,8 km/h
09.11.2011 06:00 4,5 C 85 % 1021,9 hPa 0,0 l/m 0,0 km/h N 2,1 C 4,5 C 0,4 km/h
09.11.2011 07:00 5,2 C 83 % 1022,3 hPa 0,0 l/m 0,0 km/h N 2,5 C 5,2 C 0,0 km/h
09.11.2011 08:00 6,5 C 82 % 1022,7 hPa 0,0 l/m 0,3 km/h N 3,7 C 6,5 C 3,2 km/h
09.11.2011 09:00 7,1 C 82 % 1023,0 hPa 0,0 l/m 0,2 km/h N 4,1 C 7,1 C 2,4 km/h
09.11.2011 10:00 7,5 C 81 % 1023,2 hPa 0,0 l/m 0,3 km/h N 4,5 C 7,5 C 3,6 km/h
09.11.2011 11:00 7,8 C 82 % 1023,2 hPa 0,0 l/m 0,4 km/h N-NW 4,9 C 7,8 C 2,8 km/h
09.11.2011 12:00 8,3 C 82 % 1022,9 hPa 0,0 l/m 0,1 km/h N 5,4 C 8,3 C 2,4 km/h
09.11.2011 13:00 8,6 C 83 % 1023,0 hPa 0,0 l/m 0,5 km/h N 5,8 C 8,6 C 3,6 km/h
09.11.2011 14:00 8,9 C 84 % 1022,9 hPa 0,0 l/m 0,3 km/h N 6,3 C 8,9 C 3,2 km/h
09.11.2011 15:00 9,2 C 84 % 1022,8 hPa 0,0 l/m 0,0 km/h N 6,6 C 9,2 C 1,6 km/h
09.11.2011 16:00 9,1 C 84 % 1022,8 hPa 0,0 l/m 0,1 km/h N 6,6 C 9,1 C 2,0 km/h
09.11.2011 17:00 9,0 C 84 % 1023,0 hPa 0,0 l/m 0,1 km/h N 6,4 C 9,0 C 1,2 km/h
09.11.2011 18:00 8,9 C 84 % 1023,4 hPa 0,0 l/m 0,0 km/h N 6,3 C 8,9 C 0,4 km/h
09.11.2011 19:00 8,8 C 84 % 1023,6 hPa 0,0 l/m 0,4 km/h N 6,2 C 8,8 C 2,8 km/h
09.11.2011 20:00 8,6 C 84 % 1023,7 hPa 0,0 l/m 0,1 km/h N 6,1 C 8,6 C 2,4 km/h
09.11.2011 21:00 8,6 C 84 % 1023,6 hPa 0,0 l/m 0,2 km/h N 6,1 C 8,6 C 4,0 km/h
09.11.2011 22:00 8,4 C 84 % 1023,7 hPa 0,0 l/m 0,1 km/h N 5,9 C 8,4 C 1,2 km/h
09.11.2011 23:00 8,3 C 84 % 1023,5 hPa 0,0 l/m 0,1 km/h N 5,8 C 8,3 C 1,2 km/h
10.11.2011 00:00 8,3 C 84 % 1023,4 hPa 0,0 l/m 0,2 km/h N 5,7 C 8,3 C 2,4 km/h
10.11.2011 01:00 8,3 C 84 % 1023,3 hPa 0,0 l/m 0,1 km/h N 5,8 C 8,3 C 2,0 km/h
10.11.2011 02:00 8,2 C 83 % 1023,1 hPa 0,0 l/m 0,1 km/h N 5,5 C 8,2 C 2,4 km/h
10.11.2011 03:00 8,1 C 84 % 1022,8 hPa 0,0 l/m 0,0 km/h N 5,5 C 8,1 C 2,0 km/h
10.11.2011 04:00 7,8 C 84 % 1022,7 hPa 0,0 l/m 0,0 km/h N 5,2 C 7,8 C 1,2 km/h
10.11.2011 05:00 7,5 C 84 % 1022,8 hPa 0,0 l/m 1,0 km/h NW 4,9 C 7,5 C 5,2 km/h
10.11.2011 06:00 7,5 C 83 % 1022,7 hPa 0,0 l/m 1,3 km/h NW 4,8 C 7,5 C 5,6 km/h
10.11.2011 07:00 7,6 C 83 % 1022,8 hPa 0,0 l/m 1,0 km/h N-NW 5,0 C 7,6 C 6,0 km/h
10.11.2011 08:00 7,8 C 83 % 1023,3 hPa 0,0 l/m 1,9 km/h N-NW 5,1 C 7,8 C 8,4 km/h
10.11.2011 09:00 8,3 C 83 % 1023,3 hPa 0,0 l/m 2,3 km/h N-NW 5,5 C 8,3 C 9,7 km/h
10.11.2011 10:00 8,6 C 84 % 1023,4 hPa 0,0 l/m 3,6 km/h N-NW 6,1 C 8,6 C 12,1 km/h
10.11.2011 11:00 8,9 C 84 % 1023,2 hPa 0,0 l/m 3,7 km/h N-NO 6,3 C 8,9 C 10,1 km/h
10.11.2011 12:00 8,6 C 83 % 1023,1 hPa 0,0 l/m 4,6 km/h N-NW 5,8 C 8,6 C 12,9 km/h
10.11.2011 13:00 7,9 C 84 % 1023,2 hPa 0,0 l/m 3,4 km/h NW 5,3 C 7,9 C 10,9 km/h
10.11.2011 14:00 7,3 C 85 % 1023,0 hPa 0,0 l/m 4,2 km/h NW 4,9 C 7,3 C 13,3 km/h
10.11.2011 15:00 7,1 C 85 % 1023,3 hPa 0,0 l/m 3,3 km/h NW 4,8 C 7,1 C 9,3 km/h
10.11.2011 16:00 6,8 C 85 % 1023,5 hPa 0,0 l/m 2,3 km/h NW 4,4 C 6,8 C 6,8 km/h
10.11.2011 17:00 6,4 C 83 % 1024,0 hPa 0,0 l/m 1,6 km/h N-NW 3,8 C 6,4 C 6,8 km/h
10.11.2011 18:00 5,7 C 74 % 1024,5 hPa 0,0 l/m 3,2 km/h N-NO 1,5 C 5,7 C 11,3 km/h
10.11.2011 19:00 5,6 C 75 % 1024,6 hPa 0,0 l/m 2,2 km/h N-NW 1,5 C 5,6 C 7,6 km/h
10.11.2011 20:00 5,3 C 75 % 1025,3 hPa 0,0 l/m 2,5 km/h N-NW 1,2 C 5,3 C 8,0 km/h
10.11.2011 21:00 5,0 C 76 % 1025,4 hPa 0,0 l/m 1,6 km/h NW 1,1 C 5,0 C 7,2 km/h
10.11.2011 22:00 4,8 C 77 % 1025,6 hPa 0,0 l/m 1,5 km/h N-NW 1,1 C 4,8 C 6,8 km/h
10.11.2011 23:00 4,5 C 78 % 1025,8 hPa 0,0 l/m 1,5 km/h NW 0,9 C 4,5 C 6,4 km/h
11.11.2011 00:00 4,4 C 78 % 1026,0 hPa 0,0 l/m 1,0 km/h N-NW 0,8 C 4,4 C 5,2 km/h
11.11.2011 01:00 4,3 C 78 % 1026,3 hPa 0,0 l/m 0,5 km/h N 0,8 C 4,3 C 3,6 km/h
11.11.2011 02:00 4,3 C 78 % 1026,4 hPa 0,0 l/m 0,2 km/h N 0,7 C 4,3 C 2,4 km/h
11.11.2011 03:00 4,2 C 77 % 1026,8 hPa 0,0 l/m 0,0 km/h N 0,5 C 4,2 C 0,8 km/h
11.11.2011 04:00 4,0 C 77 % 1027,4 hPa 0,0 l/m 0,1 km/h N 0,4 C 4,0 C 1,6 km/h
11.11.2011 05:00 3,8 C 78 % 1027,7 hPa 0,0 l/m 0,1 km/h N 0,3 C 3,8 C 1,6 km/h
11.11.2011 06:00 3,8 C 80 % 1028,3 hPa 0,0 l/m 0,0 km/h N 0,6 C 3,8 C 1,2 km/h
11.11.2011 07:00 3,8 C 81 % 1029,3 hPa 0,0 l/m 0,0 km/h N 0,9 C 3,8 C 0,8 km/h
11.11.2011 08:00 4,2 C 83 % 1030,1 hPa 0,0 l/m 0,0 km/h N 1,5 C 4,2 C 0,8 km/h
11.11.2011 09:00 4,6 C 77 % 1030,8 hPa 0,0 l/m 0,4 km/h N 0,9 C 4,6 C 5,2 km/h
11.11.2011 10:00 5,2 C 75 % 1031,4 hPa 0,0 l/m 0,7 km/h O 1,2 C 5,2 C 4,8 km/h
11.11.2011 11:00 5,7 C 70 % 1031,4 hPa 0,0 l/m 0,7 km/h SO 0,7 C 5,7 C 5,6 km/h
11.11.2011 12:00 6,3 C 64 % 1031,1 hPa 0,0 l/m 1,4 km/h N-NO -0,0 C 6,3 C 7,2 km/h
11.11.2011 13:00 6,4 C 63 % 1031,0 hPa 0,0 l/m 1,2 km/h O -0,2 C 6,4 C 7,2 km/h
11.11.2011 14:00 6,6 C 61 % 1031,1 hPa 0,0 l/m 1,0 km/h O-SO -0,5 C 6,6 C 5,6 km/h
11.11.2011 15:00 6,4 C 61 % 1031,6 hPa 0,0 l/m 0,7 km/h N -0,5 C 6,4 C 6,0 km/h
11.11.2011 16:00 5,8 C 64 % 1032,2 hPa 0,0 l/m 0,8 km/h N -0,6 C 5,8 C 6,8 km/h
11.11.2011 17:00 4,9 C 68 % 1032,8 hPa 0,0 l/m 0,5 km/h N -0,5 C 4,9 C 5,6 km/h
11.11.2011 18:00 4,3 C 70 % 1033,3 hPa 0,0 l/m 0,5 km/h N -0,7 C 4,3 C 6,0 km/h
11.11.2011 19:00 3,3 C 72 % 1033,6 hPa 0,0 l/m 0,1 km/h N -1,3 C 3,3 C 2,0 km/h
11.11.2011 20:00 2,3 C 75 % 1033,8 hPa 0,0 l/m 0,0 km/h N -1,8 C 2,3 C 1,6 km/h
11.11.2011 21:00 1,7 C 78 % 1034,1 hPa 0,0 l/m 0,1 km/h N -1,7 C 1,7 C 2,8 km/h
11.11.2011 22:00 1,3 C 80 % 1034,1 hPa 0,0 l/m 0,1 km/h N -1,8 C 1,3 C 2,8 km/h
11.11.2011 23:00 1,5 C 82 % 1034,2 hPa 0,0 l/m 0,1 km/h N -1,2 C 1,5 C 2,4 km/h
12.11.2011 00:00 1,1 C 82 % 1034,2 hPa 0,0 l/m 0,0 km/h N -1,7 C 1,1 C 0,4 km/h
12.11.2011 01:00 2,1 C 85 % 1034,1 hPa 0,0 l/m 0,1 km/h N -0,2 C 2,1 C 2,0 km/h
12.11.2011 02:00 2,2 C 84 % 1034,4 hPa 0,0 l/m 0,2 km/h N -0,2 C 2,2 C 2,4 km/h
12.11.2011 03:00 1,8 C 85 % 1034,2 hPa 0,0 l/m 0,3 km/h N -0,5 C 1,8 C 4,0 km/h
12.11.2011 04:00 1,7 C 85 % 1034,3 hPa 0,0 l/m 0,1 km/h N -0,5 C 1,7 C 3,2 km/h
12.11.2011 05:00 1,4 C 85 % 1034,5 hPa 0,0 l/m 0,0 km/h N -0,9 C 1,4 C 0,8 km/h
12.11.2011 06:00 0,9 C 85 % 1034,9 hPa 0,0 l/m 0,0 km/h N -1,4 C 0,9 C 1,6 km/h
12.11.2011 07:00 0,2 C 85 % 1035,7 hPa 0,0 l/m 0,0 km/h N -2,1 C 0,2 C 0,8 km/h
12.11.2011 08:00 0,3 C 85 % 1036,4 hPa 0,0 l/m 0,0 km/h N -1,9 C 0,3 C 1,6 km/h
12.11.2011 09:00 1,5 C 85 % 1036,8 hPa 0,0 l/m 0,1 km/h N -0,8 C 1,5 C 1,6 km/h
12.11.2011 10:00 3,4 C 84 % 1036,9 hPa 0,0 l/m 0,5 km/h N 0,9 C 3,4 C 5,2 km/h
12.11.2011 11:00 5,2 C 77 % 1036,6 hPa 0,0 l/m 0,8 km/h N 1,5 C 5,2 C 6,0 km/h
12.11.2011 12:00 6,8 C 71 % 1036,4 hPa 0,0 l/m 0,6 km/h N 1,8 C 6,8 C 5,6 km/h
12.11.2011 13:00 7,4 C 69 % 1036,0 hPa 0,0 l/m 0,4 km/h N 2,1 C 7,4 C 3,6 km/h
12.11.2011 14:00 7,7 C 69 % 1036,0 hPa 0,0 l/m 0,4 km/h N 2,3 C 7,7 C 4,4 km/h
12.11.2011 15:00 7,5 C 69 % 1036,1 hPa 0,0 l/m 0,1 km/h N 2,1 C 7,5 C 2,0 km/h
12.11.2011 16:00 6,1 C 70 % 1036,3 hPa 0,0 l/m 0,0 km/h N 1,1 C 6,1 C 0,4 km/h
12.11.2011 17:00 3,5 C 76 % 1036,9 hPa 0,0 l/m 0,0 km/h N -0,4 C 3,5 C 0,0 km/h
12.11.2011 18:00 1,9 C 79 % 1037,6 hPa 0,0 l/m 0,0 km/h N -1,3 C 1,9 C 0,0 km/h
12.11.2011 19:00 0,7 C 82 % 1037,7 hPa 0,0 l/m 0,0 km/h N -2,1 C 0,7 C 0,0 km/h
12.11.2011 20:00 -0,3 C 83 % 1037,8 hPa 0,0 l/m 0,0 km/h N -2,8 C -0,3 C 0,0 km/h
12.11.2011 21:00 -0,8 C 84 % 1037,8 hPa 0,0 l/m 0,0 km/h N -3,2 C -0,8 C 0,0 km/h
12.11.2011 22:00 -1,2 C 85 % 1037,8 hPa 0,0 l/m 0,0 km/h N -3,4 C -1,2 C 0,0 km/h
12.11.2011 23:00 -1,7 C 85 % 1038,1 hPa 0,0 l/m 0,0 km/h N -3,8 C -1,7 C 0,0 km/h
13.11.2011 00:00 -2,0 C 85 % 1037,8 hPa 0,0 l/m 0,0 km/h N -4,2 C -2,0 C 0,0 km/h
13.11.2011 01:00 -2,3 C 85 % 1037,7 hPa 0,0 l/m 0,0 km/h N -4,4 C -2,3 C 0,0 km/h
13.11.2011 02:00 -2,4 C 85 % 1037,5 hPa 0,0 l/m 0,0 km/h N -4,5 C -2,4 C 0,0 km/h
13.11.2011 03:00 -2,8 C 86 % 1037,1 hPa 0,0 l/m 0,0 km/h N -4,8 C -2,8 C 0,0 km/h
13.11.2011 04:00 -3,1 C 86 % 1037,2 hPa 0,0 l/m 0,0 km/h N -5,1 C -3,1 C 0,0 km/h
13.11.2011 05:00 -3,3 C 86 % 1037,4 hPa 0,0 l/m 0,0 km/h N -5,3 C -3,3 C 0,0 km/h
13.11.2011 06:00 -3,6 C 86 % 1037,4 hPa 0,0 l/m 0,0 km/h N -5,6 C -3,6 C 0,0 km/h
13.11.2011 07:00 -3,8 C 86 % 1037,8 hPa 0,0 l/m 0,0 km/h N -5,8 C -3,8 C 0,0 km/h
13.11.2011 08:00 -3,3 C 85 % 1038,0 hPa 0,0 l/m 0,0 km/h N -5,4 C -3,3 C 0,0 km/h
13.11.2011 09:00 -1,0 C 83 % 1037,9 hPa 0,0 l/m 0,0 km/h N -3,5 C -1,0 C 0,4 km/h
13.11.2011 10:00 1,2 C 83 % 1037,7 hPa 0,0 l/m 0,1 km/h N -1,5 C 1,2 C 2,0 km/h
13.11.2011 11:00 2,4 C 84 % 1037,1 hPa 0,0 l/m 0,3 km/h N -0,1 C 2,4 C 2,8 km/h
13.11.2011 12:00 3,6 C 84 % 1036,5 hPa 0,0 l/m 0,6 km/h N 1,2 C 3,6 C 4,0 km/h
13.11.2011 13:00 4,8 C 81 % 1035,9 hPa 0,0 l/m 0,4 km/h N 1,8 C 4,8 C 3,2 km/h
13.11.2011 14:00 5,6 C 77 % 1035,4 hPa 0,0 l/m 0,2 km/h N 1,9 C 5,6 C 2,4 km/h
13.11.2011 15:00 5,9 C 75 % 1035,4 hPa 0,0 l/m 0,1 km/h N 1,8 C 5,9 C 2,0 km/h
13.11.2011 16:00 4,4 C 76 % 1035,1 hPa 0,0 l/m 0,0 km/h N 0,5 C 4,4 C 0,8 km/h
13.11.2011 17:00 2,1 C 79 % 1035,0 hPa 0,0 l/m 0,0 km/h N -1,1 C 2,1 C 0,8 km/h
13.11.2011 18:00 0,7 C 82 % 1034,7 hPa 0,0 l/m 0,0 km/h N -2,1 C 0,7 C 0,4 km/h
13.11.2011 19:00 -0,0 C 83 % 1034,5 hPa 0,0 l/m 0,0 km/h N -2,6 C -0,0 C 0,4 km/h
13.11.2011 20:00 -0,6 C 84 % 1034,3 hPa 0,0 l/m 0,0 km/h N -2,9 C -0,6 C 0,0 km/h
13.11.2011 21:00 -1,2 C 85 % 1034,2 hPa 0,0 l/m 0,0 km/h N -3,4 C -1,2 C 0,0 km/h
13.11.2011 22:00 -1,7 C 85 % 1033,9 hPa 0,0 l/m 0,0 km/h N -3,8 C -1,7 C 0,0 km/h
13.11.2011 23:00 -1,8 C 87 % 1033,7 hPa 0,0 l/m 0,1 km/h N -3,6 C -1,8 C 2,0 km/h
Min-Datum _ 13.11.11 11.11.11 07.11.11 - 07.11.11 - 13.11.11 13.11.11 07.11.11
_ Min-Zeit 07:30 14:30 00:00 - 00:15 - 07:00 07:00 00:15
Minimum _ -3,9 C 59 % 1020,8 hPa - 0,0 km/h - -5,8 C -3,8 C 0,0 km/h
Max-Datum _ 08.11.11 13.11.11 12.11.11 07.11.11 10.11.11 - 08.11.11 08.11.11 10.11.11
_ Max-Zeit 14:15 23:30 23:30 00:00 12:45 - 14:00 14:15 10:00
Maximum _ 12,4 C 92 % 1038,1 hPa 0,0 l/m 5,7 km/h
N-NW
- 8,6 C 12,4 C 16,1 km/h
N-NW
Durchschnitt _ 5,4 C 81 % 1028,0 hPa #0,0 l/m 0,5 km/h N-NW 2,3 C 5,4 C 3,4 km/h